Terminal Aerodrome Forecast
Issued by NWS Louisville, KY

Home | Current Version | Previous Version | Text Only | Print | Product List | Glossary On
Versions: 1 2 3 4 5 6 7 8 9 10 11 12 13 14 15 16 17 18 19 20 21 22 23 24
000
FTUS43 KLMK 261044 AAA
TAFSDF
TAF AMD
KSDF 261044Z 2611/2712 VRB02KT 6SM BR SCT250
     FM261300 25006KT P6SM SCT045 PROB30 2620/2624 VRB10G20KT 4SM
      TSRA BR BKN035CB
     FM270000 VRB03KT P6SM SCT250=

USA.gov is the U.S. government's official web portal to all federal, state and local government web resources and services.